createdAt,value
2023-01-27T00:01:20.754Z,1.75
2023-01-27T00:03:53.370Z,2.05
2023-01-27T00:06:26.089Z,2.42
2023-01-27T00:08:58.632Z,2.00
2023-01-27T00:11:50.091Z,2.25
2023-01-27T00:14:23.515Z,2.50
2023-01-27T00:16:56.178Z,2.22
2023-01-27T00:19:28.931Z,3.70
2023-01-27T00:22:19.876Z,2.17
2023-01-27T00:24:52.475Z,2.05
2023-01-27T00:27:27.286Z,2.58
2023-01-27T00:29:59.913Z,1.48
2023-01-27T00:32:51.496Z,2.45
2023-01-27T00:35:25.607Z,1.52
2023-01-27T00:37:58.247Z,2.58
2023-01-27T00:40:30.887Z,1.85
2023-01-27T00:43:03.535Z,2.00
2023-01-27T00:45:52.613Z,1.52
2023-01-27T00:48:25.278Z,2.15
2023-01-27T00:50:57.969Z,2.38
2023-01-27T00:53:31.810Z,1.10
2023-01-27T00:56:08.005Z,2.45
2023-01-27T00:58:44.949Z,1.55
2023-01-27T01:01:17.971Z,1.73
2023-01-27T01:03:50.683Z,2.60
2023-01-27T01:06:23.598Z,1.63
2023-01-27T01:08:57.201Z,1.98
2023-01-27T01:11:29.827Z,2.03
2023-01-27T01:14:10.733Z,2.22
2023-01-27T01:16:43.439Z,1.27
2023-01-27T01:19:16.363Z,2.75
2023-01-27T01:21:49.004Z,1.50
2023-01-27T01:24:21.755Z,1.20
2023-01-27T01:26:57.729Z,1.48
2023-01-27T01:29:30.436Z,2.38
2023-01-27T01:32:03.053Z,1.63
2023-01-27T01:34:48.037Z,1.77
2023-01-27T01:37:20.639Z,2.63
2023-01-27T01:39:53.180Z,1.55
2023-01-27T01:42:25.783Z,1.38
2023-01-27T01:45:39.529Z,1.83
2023-01-27T01:48:21.699Z,2.05
2023-01-27T01:51:02.087Z,1.70
2023-01-27T01:53:43.884Z,2.08
2023-01-27T01:56:57.939Z,1.80
2023-01-27T02:00:13.990Z,1.63
2023-01-27T02:02:49.957Z,2.13
2023-01-27T02:05:32.422Z,2.90
2023-01-27T02:08:15.301Z,2.67
2023-01-27T02:10:48.911Z,1.52
2023-01-27T02:13:22.270Z,1.98
2023-01-27T02:15:55.790Z,2.03
2023-01-27T02:18:29.542Z,3.10
2023-01-27T02:21:02.863Z,2.53
2023-01-27T02:23:53.471Z,2.20
2023-01-27T02:26:42.759Z,1.38
2023-01-27T02:29:16.444Z,2.45
2023-01-27T02:31:49.128Z,2.38
2023-01-27T02:34:30.639Z,1.42
2023-01-27T02:37:09.399Z,1.38
2023-01-27T02:39:45.769Z,1.67
2023-01-27T02:42:19.570Z,1.95
2023-01-27T02:44:52.110Z,1.63
2023-01-27T02:47:24.700Z,1.45
2023-01-27T02:49:57.288Z,2.45
2023-01-27T02:52:29.846Z,1.80
2023-01-27T02:55:02.422Z,1.30
2023-01-27T02:57:35.264Z,1.58
2023-01-27T03:00:09.891Z,1.88
2023-01-27T03:02:42.607Z,2.47
2023-01-27T03:05:15.774Z,1.90
2023-01-27T03:07:48.522Z,0.73
2023-01-27T03:10:28.649Z,1.25
2023-01-27T03:13:01.252Z,1.63
2023-01-27T03:15:52.689Z,3.10
2023-01-27T03:18:25.294Z,1.77
2023-01-27T03:21:04.419Z,1.73
2023-01-27T03:23:37.250Z,2.88
2023-01-27T03:26:10.405Z,2.35
2023-01-27T03:29:06.347Z,1.85
2023-01-27T03:31:39.060Z,0.90
2023-01-27T03:34:11.689Z,1.77
2023-01-27T03:37:02.762Z,1.65
2023-01-27T03:39:53.952Z,2.08
2023-01-27T03:42:45.206Z,2.50
2023-01-27T03:45:36.259Z,1.92
2023-01-27T03:48:08.843Z,2.25
2023-01-27T03:50:43.143Z,2.50
2023-01-27T03:55:48.366Z,1.92
2023-01-27T03:58:28.635Z,1.35
2023-01-27T04:01:22.334Z,1.83
2023-01-27T04:04:13.737Z,1.70
2023-01-27T04:06:56.369Z,2.75
2023-01-27T04:09:35.784Z,2.13
2023-01-27T04:12:10.274Z,2.50
2023-01-27T04:14:42.839Z,1.35
2023-01-27T04:17:21.144Z,2.30
2023-01-27T04:19:53.818Z,2.28
2023-01-27T04:22:26.428Z,2.10
2023-01-27T04:24:58.985Z,1.67
2023-01-27T04:27:38.839Z,1.90
2023-01-27T04:30:11.975Z,1.50
2023-01-27T04:32:44.558Z,2.13
2023-01-27T04:35:18.107Z,2.28
2023-01-27T04:37:50.711Z,1.20
2023-01-27T04:40:23.362Z,2.35
2023-01-27T04:42:55.912Z,2.03
2023-01-27T04:45:28.542Z,2.88
2023-01-27T04:48:01.103Z,2.42
2023-01-27T04:50:34.567Z,2.22
2023-01-27T04:53:07.147Z,1.75
2023-01-27T04:55:43.725Z,1.63
2023-01-27T04:58:20.582Z,1.23
2023-01-27T05:00:53.276Z,1.67
2023-01-27T05:03:25.813Z,2.42
2023-01-27T05:05:58.575Z,1.27
2023-01-27T05:08:31.193Z,2.72
2023-01-27T05:11:03.921Z,1.52
2023-01-27T05:13:36.544Z,1.90
2023-01-27T05:16:12.528Z,2.00
2023-01-27T05:18:48.533Z,2.72
2023-01-27T05:21:25.513Z,1.67
2023-01-27T05:23:58.249Z,1.70
2023-01-27T05:26:30.883Z,1.13
2023-01-27T05:29:03.479Z,1.42
2023-01-27T05:31:36.154Z,1.95
2023-01-27T05:34:08.910Z,2.15
2023-01-27T05:36:41.461Z,1.48
2023-01-27T05:39:14.233Z,2.10
2023-01-27T05:41:46.878Z,1.27
2023-01-27T05:44:19.548Z,1.67
2023-01-27T05:46:52.240Z,1.35
2023-01-27T05:49:25.284Z,1.30
2023-01-27T05:51:58.166Z,1.25
2023-01-27T05:54:30.749Z,1.75
2023-01-27T05:57:03.383Z,1.38
2023-01-27T05:59:36.043Z,1.48
2023-01-27T06:02:09.346Z,1.48
2023-01-27T06:04:41.889Z,1.83
2023-01-27T06:07:14.369Z,1.85
2023-01-27T06:09:47.042Z,1.92
2023-01-27T06:12:19.811Z,2.22
2023-01-27T06:14:53.572Z,1.65
2023-01-27T06:17:26.379Z,1.30
2023-01-27T06:19:59.019Z,1.33
2023-01-27T06:22:31.671Z,1.55
2023-01-27T06:25:04.529Z,1.77
2023-01-27T06:27:37.129Z,1.50
2023-01-27T06:30:10.497Z,1.20
2023-01-27T06:32:43.233Z,1.33
2023-01-27T06:35:15.960Z,1.10
2023-01-27T06:37:49.978Z,1.65
2023-01-27T06:40:22.630Z,1.67
2023-01-27T06:42:55.499Z,1.23
2023-01-27T06:45:28.500Z,1.13
2023-01-27T06:48:02.014Z,0.98
2023-01-27T06:50:34.830Z,1.35
2023-01-27T06:53:08.252Z,1.35
2023-01-27T06:55:44.703Z,0.88
2023-01-27T06:58:17.254Z,1.52
2023-01-27T07:00:50.181Z,1.23
2023-01-27T07:03:23.155Z,1.45
2023-01-27T07:05:55.802Z,1.70
2023-01-27T07:08:28.452Z,1.40
2023-01-27T07:11:04.700Z,1.38
2023-01-27T07:13:37.216Z,1.00
2023-01-27T07:16:09.762Z,1.33
2023-01-27T07:18:42.327Z,1.88
2023-01-27T07:21:14.928Z,1.65
2023-01-27T07:23:47.519Z,1.15
2023-01-27T07:26:25.154Z,1.75
2023-01-27T07:28:57.871Z,1.60
2023-01-27T07:31:30.568Z,1.00
2023-01-27T07:34:03.367Z,1.20
2023-01-27T07:36:36.044Z,0.88
2023-01-27T07:39:08.660Z,1.30
2023-01-27T07:41:41.265Z,1.17
2023-01-27T07:44:13.887Z,1.13
2023-01-27T07:46:47.569Z,1.70
2023-01-27T07:49:20.266Z,1.23
2023-01-27T07:52:05.328Z,1.58
2023-01-27T07:54:37.901Z,0.75
2023-01-27T07:57:10.580Z,1.00
2023-01-27T07:59:43.159Z,1.27
2023-01-27T08:02:15.771Z,2.03
2023-01-27T08:04:53.679Z,0.90
2023-01-27T08:07:26.454Z,0.75
2023-01-27T08:09:59.364Z,1.35
2023-01-27T08:12:31.862Z,1.02
2023-01-27T08:15:06.804Z,0.93
2023-01-27T08:17:40.027Z,0.80
2023-01-27T08:20:13.231Z,0.88
2023-01-27T08:22:45.952Z,1.20
2023-01-27T08:25:19.427Z,1.20
2023-01-27T08:27:53.876Z,1.77
2023-01-27T08:30:26.753Z,0.90
2023-01-27T08:32:59.338Z,1.00
2023-01-27T08:35:32.036Z,1.67
2023-01-27T08:38:05.594Z,0.88
2023-01-27T08:40:40.597Z,0.90
2023-01-27T08:43:16.463Z,1.00
2023-01-27T08:45:52.578Z,1.13
2023-01-27T08:48:25.110Z,1.33
2023-01-27T08:50:59.857Z,0.60
2023-01-27T08:53:33.574Z,0.70
2023-01-27T08:56:12.180Z,0.70
2023-01-27T08:58:47.357Z,0.80
2023-01-27T09:01:20.846Z,0.60
2023-01-27T09:03:53.538Z,0.60
2023-01-27T09:06:26.263Z,1.58
2023-01-27T09:09:12.109Z,0.82
2023-01-27T09:11:45.625Z,1.13
2023-01-27T09:14:18.913Z,0.70
2023-01-27T09:16:51.445Z,0.83
2023-01-27T09:19:24.073Z,0.60
2023-01-27T09:21:56.810Z,0.77
2023-01-27T09:24:29.465Z,0.65
2023-01-27T09:27:02.009Z,0.55
2023-01-27T09:29:34.733Z,0.68
2023-01-27T09:32:09.318Z,0.70
2023-01-27T09:34:41.953Z,0.47
2023-01-27T09:37:14.693Z,0.82
2023-01-27T09:39:55.709Z,0.80
2023-01-27T09:42:54.869Z,0.50
2023-01-27T09:45:50.150Z,0.65
2023-01-27T09:49:11.758Z,0.50
2023-01-27T09:52:03.105Z,0.88
2023-01-27T09:55:18.264Z,0.60
2023-01-27T09:58:37.476Z,1.08
2023-01-27T10:01:52.364Z,0.80
2023-01-27T10:04:53.879Z,0.73
2023-01-27T10:07:59.610Z,0.70
2023-01-27T10:10:58.090Z,0.50
2023-01-27T10:14:13.934Z,0.65
2023-01-27T10:17:24.478Z,0.63
2023-01-27T10:20:19.047Z,0.70
2023-01-27T10:23:12.403Z,0.85
2023-01-27T10:26:05.115Z,0.82
2023-01-27T10:28:40.074Z,0.60
2023-01-27T10:31:26.684Z,0.50
2023-01-27T10:34:19.516Z,0.65
2023-01-27T10:37:24.580Z,0.50
2023-01-27T10:40:08.840Z,0.60
2023-01-27T10:43:02.741Z,0.88
2023-01-27T10:45:55.315Z,1.52
2023-01-27T10:48:52.352Z,0.95
2023-01-27T10:51:37.565Z,0.40
2023-01-27T10:54:16.502Z,0.73
2023-01-27T10:57:01.105Z,0.70
2023-01-27T11:03:33.814Z,0.63
2023-01-27T11:06:17.899Z,0.70
2023-01-27T11:09:04.433Z,0.70
2023-01-27T11:11:44.453Z,0.77
2023-01-27T11:14:38.876Z,0.68
2023-01-27T11:17:30.199Z,0.63
2023-01-27T11:20:31.242Z,1.00
2023-01-27T11:23:09.832Z,0.70
2023-01-27T11:26:10.512Z,0.60
2023-01-27T11:28:59.964Z,0.75
2023-01-27T11:32:06.352Z,0.63
2023-01-27T11:35:08.445Z,1.17
2023-01-27T11:38:14.531Z,0.90
2023-01-27T11:40:51.646Z,0.60
2023-01-27T11:43:27.251Z,0.60
2023-01-27T11:46:07.933Z,0.60
2023-01-27T11:48:50.021Z,0.55
2023-01-27T11:51:26.749Z,0.60
2023-01-27T11:54:19.154Z,0.90
2023-01-27T11:56:51.742Z,1.00
2023-01-27T11:59:30.988Z,0.50
2023-01-27T12:02:09.453Z,0.73
2023-01-27T12:04:57.784Z,0.93
2023-01-27T12:07:55.475Z,0.80
2023-01-27T12:10:34.221Z,0.63
2023-01-27T12:13:18.965Z,0.43
2023-01-27T12:15:58.863Z,0.52
2023-01-27T12:18:49.771Z,0.40
2023-01-27T12:21:38.483Z,0.80
2023-01-27T12:24:29.546Z,0.75
2023-01-27T12:27:05.562Z,0.63
2023-01-27T12:29:54.927Z,1.25
2023-01-27T12:32:42.680Z,0.60
2023-01-27T12:35:29.516Z,0.75
2023-01-27T12:38:12.828Z,0.70
2023-01-27T12:40:48.060Z,0.80
2023-01-27T12:43:20.669Z,0.60
2023-01-27T12:46:12.261Z,0.98
2023-01-27T12:48:52.619Z,0.52
2023-01-27T12:51:45.092Z,0.80
2023-01-27T12:54:22.682Z,0.75
2023-01-27T12:57:02.650Z,0.60
2023-01-27T12:59:45.298Z,0.57
2023-01-27T13:02:25.190Z,0.80
2023-01-27T13:05:04.279Z,0.82
2023-01-27T13:07:45.667Z,0.60
2023-01-27T13:10:23.875Z,0.77
2023-01-27T13:13:01.174Z,0.40
2023-01-27T13:15:33.984Z,0.70
2023-01-27T13:18:24.625Z,0.50
2023-01-27T13:21:15.787Z,0.75
2023-01-27T13:23:55.770Z,0.73
2023-01-27T13:26:35.145Z,0.60
2023-01-27T13:29:10.709Z,0.52
2023-01-27T13:31:56.807Z,0.70
2023-01-27T13:34:48.495Z,0.73
2023-01-27T13:37:34.468Z,1.13
2023-01-27T13:40:33.867Z,0.77
2023-01-27T13:43:25.386Z,0.68
2023-01-27T13:46:14.885Z,0.70
2023-01-27T13:49:03.359Z,0.80
2023-01-27T13:51:40.315Z,0.98
2023-01-27T13:54:15.939Z,1.52
2023-01-27T13:57:18.115Z,0.70
2023-01-27T13:59:59.571Z,0.73
2023-01-27T14:03:04.124Z,0.77
2023-01-27T14:06:03.347Z,0.90
2023-01-27T14:08:57.335Z,1.50
2023-01-27T14:11:53.885Z,0.70
2023-01-27T14:14:57.426Z,0.70
2023-01-27T14:17:44.115Z,1.02
2023-01-27T14:20:37.514Z,0.65
2023-01-27T14:23:26.929Z,0.80
2023-01-27T14:26:52.505Z,0.63
2023-01-27T14:29:45.189Z,1.13
2023-01-27T14:32:34.220Z,1.45
2023-01-27T14:35:44.197Z,0.80
2023-01-27T14:38:33.555Z,0.70
2023-01-27T14:41:36.515Z,0.50
2023-01-27T14:44:55.599Z,0.40
2023-01-27T14:48:09.218Z,0.60
2023-01-27T14:51:16.333Z,0.40
2023-01-27T14:53:49.828Z,0.70
2023-01-27T14:56:49.193Z,0.60
2023-01-27T14:59:42.624Z,0.93
2023-01-27T15:02:15.369Z,0.45
2023-01-27T15:05:23.397Z,0.45
2023-01-27T15:08:13.812Z,0.60
2023-01-27T15:10:59.947Z,1.05
2023-01-27T15:14:03.808Z,0.40
2023-01-27T15:17:20.183Z,0.55
2023-01-27T15:20:33.044Z,0.88
2023-01-27T15:23:46.299Z,0.47
2023-01-27T15:26:25.369Z,0.70
2023-01-27T15:28:59.898Z,0.50
2023-01-27T15:31:33.385Z,1.25
2023-01-27T15:34:23.319Z,0.40
2023-01-27T15:37:28.235Z,0.60
2023-01-27T15:40:17.462Z,0.77
2023-01-27T15:43:02.043Z,0.40
2023-01-27T15:48:09.933Z,0.40
2023-01-27T15:50:53.783Z,0.70
2023-01-27T15:53:40.593Z,0.60
2023-01-27T15:56:13.343Z,0.60
2023-01-27T15:59:05.321Z,0.55
2023-01-27T16:01:37.816Z,0.40
2023-01-27T16:04:10.266Z,0.68
2023-01-27T16:07:02.476Z,0.80
2023-01-27T16:09:41.399Z,0.40
2023-01-27T16:12:20.171Z,0.70
2023-01-27T16:15:01.776Z,1.20
2023-01-27T16:17:34.344Z,0.57
2023-01-27T16:20:30.402Z,0.77
2023-01-27T16:23:15.783Z,0.52
2023-01-27T16:26:03.371Z,0.82
2023-01-27T16:28:38.348Z,0.80
2023-01-27T16:31:19.396Z,0.70
2023-01-27T16:33:59.846Z,0.68
2023-01-27T16:36:36.913Z,0.90
2023-01-27T16:39:18.425Z,0.68
2023-01-27T16:41:59.009Z,0.50
2023-01-27T16:44:46.546Z,0.70
2023-01-27T16:47:31.889Z,0.60
2023-01-27T16:50:38.351Z,0.77
2023-01-27T16:53:25.425Z,0.80
2023-01-27T16:56:04.021Z,1.10
2023-01-27T16:58:46.161Z,0.70
2023-01-27T17:01:27.039Z,0.93
2023-01-27T17:04:18.865Z,0.60
2023-01-27T17:06:57.911Z,0.68
2023-01-27T17:09:38.989Z,0.65
2023-01-27T17:12:50.844Z,0.50
2023-01-27T17:15:38.044Z,0.93
2023-01-27T17:18:11.630Z,0.55
2023-01-27T17:20:50.071Z,0.52
2023-01-27T17:23:35.871Z,0.50
2023-01-27T17:26:18.630Z,0.50
2023-01-27T17:28:51.398Z,0.43
2023-01-27T17:31:25.628Z,0.60
2023-01-27T17:34:01.414Z,0.65
2023-01-27T17:36:34.080Z,0.75
2023-01-27T17:39:26.446Z,0.73
2023-01-27T17:42:01.625Z,1.00
2023-01-27T17:44:34.320Z,0.60
2023-01-27T17:47:07.528Z,0.50
2023-01-27T17:49:41.408Z,0.50
2023-01-27T17:52:25.173Z,0.73
2023-01-27T17:55:02.917Z,1.02
2023-01-27T17:57:36.341Z,0.80
2023-01-27T18:00:34.658Z,0.65
2023-01-27T18:03:22.721Z,1.00
2023-01-27T18:05:56.346Z,0.40
2023-01-27T18:08:35.255Z,0.60
2023-01-27T18:11:33.874Z,0.68
2023-01-27T18:14:19.533Z,0.90
2023-01-27T18:17:24.461Z,0.85
2023-01-27T18:19:57.264Z,0.40
2023-01-27T18:22:29.979Z,0.75
2023-01-27T18:25:03.833Z,0.55
2023-01-27T18:27:37.792Z,0.60
2023-01-27T18:30:18.963Z,0.68
2023-01-27T18:33:00.198Z,0.43
2023-01-27T18:35:34.909Z,0.57
2023-01-27T18:38:26.583Z,0.55
2023-01-27T18:41:11.588Z,0.45
2023-01-27T18:43:44.446Z,0.75
2023-01-27T18:46:17.157Z,1.00
2023-01-27T18:48:49.859Z,0.60
2023-01-27T18:51:23.061Z,0.65
2023-01-27T18:53:55.702Z,0.68
2023-01-27T18:56:28.229Z,0.95
2023-01-27T18:59:00.949Z,0.57
2023-01-27T19:01:35.132Z,0.43
2023-01-27T19:06:44.394Z,0.70
2023-01-27T19:09:18.253Z,0.65
2023-01-27T19:11:53.205Z,0.68
2023-01-27T19:14:25.861Z,0.63
2023-01-27T19:16:58.504Z,0.77
2023-01-27T19:19:31.245Z,0.60
2023-01-27T19:22:03.879Z,0.75
2023-01-27T19:24:36.530Z,0.52
2023-01-27T19:27:13.680Z,1.15
2023-01-27T19:29:46.230Z,0.50
2023-01-27T19:32:18.767Z,1.10
2023-01-27T19:34:51.350Z,0.98
2023-01-27T19:37:24.496Z,0.60
2023-01-27T19:39:59.235Z,0.90
2023-01-27T19:42:31.800Z,0.80
2023-01-27T19:45:04.839Z,0.55
2023-01-27T19:47:37.428Z,1.08
2023-01-27T19:50:20.368Z,0.65
2023-01-27T19:52:53.134Z,0.98
2023-01-27T19:55:25.989Z,0.60
2023-01-27T19:57:58.661Z,1.05
2023-01-27T20:00:36.742Z,1.20
2023-01-27T20:03:09.405Z,0.80
2023-01-27T20:05:42.482Z,0.60
2023-01-27T20:08:18.950Z,0.88
2023-01-27T20:10:52.126Z,0.90
2023-01-27T20:13:24.750Z,0.70
2023-01-27T20:15:57.483Z,0.95
2023-01-27T20:18:31.215Z,1.05
2023-01-27T20:21:04.726Z,0.90
2023-01-27T20:23:37.304Z,0.77
2023-01-27T20:26:16.086Z,0.60
2023-01-27T20:28:49.054Z,0.60
2023-01-27T20:31:25.329Z,1.13
2023-01-27T20:33:59.542Z,0.70
2023-01-27T20:39:04.529Z,0.82
2023-01-27T20:41:37.925Z,0.70
2023-01-27T20:44:12.442Z,0.70
2023-01-27T20:46:44.960Z,0.90
2023-01-27T20:49:17.618Z,1.05
2023-01-27T20:51:50.310Z,0.98
2023-01-27T20:54:22.966Z,0.90
2023-01-27T20:57:04.750Z,0.80
2023-01-27T20:59:37.314Z,0.70
2023-01-27T21:02:10.790Z,1.00
2023-01-27T21:04:43.478Z,0.50
2023-01-27T21:07:16.137Z,0.50
2023-01-27T21:09:49.014Z,0.88
2023-01-27T21:12:21.773Z,0.65
2023-01-27T21:14:54.750Z,0.88
2023-01-27T21:17:27.293Z,0.70
2023-01-27T21:19:59.946Z,0.60
2023-01-27T21:22:34.429Z,0.70
2023-01-27T21:25:07.641Z,0.60
2023-01-27T21:27:41.745Z,0.50
2023-01-27T21:30:14.507Z,0.80
2023-01-27T21:32:47.067Z,0.80
2023-01-27T21:35:19.663Z,0.57
2023-01-27T21:37:52.215Z,0.68
2023-01-27T21:40:24.976Z,0.98
2023-01-27T21:43:16.062Z,0.68
2023-01-27T21:46:02.542Z,0.90
2023-01-27T21:48:36.465Z,0.70
2023-01-27T21:51:09.127Z,0.70
2023-01-27T21:53:41.891Z,0.60
2023-01-27T21:56:14.579Z,0.75
2023-01-27T21:58:47.248Z,0.52
2023-01-27T22:01:19.936Z,0.70
2023-01-27T22:03:52.893Z,1.92
2023-01-27T22:06:25.560Z,0.70
2023-01-27T22:08:58.285Z,1.02
2023-01-27T22:11:30.802Z,1.00
2023-01-27T22:14:03.272Z,1.08
2023-01-27T22:16:35.868Z,0.98
2023-01-27T22:19:08.374Z,1.15
2023-01-27T22:21:41.006Z,1.13
2023-01-27T22:24:13.855Z,0.70
2023-01-27T22:26:46.535Z,0.73
2023-01-27T22:29:19.186Z,0.82
2023-01-27T22:31:51.866Z,1.00
2023-01-27T22:34:24.687Z,1.10
2023-01-27T22:36:57.377Z,0.93
2023-01-27T22:39:30.043Z,1.30
2023-01-27T22:42:02.860Z,0.90
2023-01-27T22:44:35.641Z,1.10
2023-01-27T22:47:08.328Z,1.00
2023-01-27T22:49:40.943Z,0.80
2023-01-27T22:52:13.531Z,1.10
2023-01-27T22:54:46.363Z,1.10
2023-01-27T22:57:19.056Z,1.00
2023-01-27T22:59:51.732Z,1.02
2023-01-27T23:02:27.798Z,0.90
2023-01-27T23:05:00.541Z,0.73
2023-01-27T23:07:33.264Z,1.13
2023-01-27T23:10:06.686Z,1.15
2023-01-27T23:12:39.336Z,1.00
2023-01-27T23:15:13.043Z,1.05
2023-01-27T23:17:49.116Z,0.68
2023-01-27T23:20:23.075Z,1.00
2023-01-27T23:22:55.856Z,0.98
2023-01-27T23:25:28.473Z,1.05
2023-01-27T23:28:01.633Z,0.90
2023-01-27T23:30:34.388Z,1.10
2023-01-27T23:33:07.087Z,1.00
2023-01-27T23:35:40.785Z,0.80
2023-01-27T23:38:30.357Z,0.60
2023-01-27T23:41:08.644Z,0.80
2023-01-27T23:43:41.367Z,0.85
2023-01-27T23:46:14.477Z,0.75
2023-01-27T23:48:55.429Z,0.85
2023-01-27T23:51:28.041Z,1.10
2023-01-27T23:54:00.672Z,0.68
2023-01-27T23:56:33.529Z,1.00
2023-01-27T23:59:06.168Z,1.20
